sensor_id;sensor_type;location;lat;lon;timestamp;pressure;altitude;pressure_sealevel;temperature;humidity
15694;BME280;7947;48.834;9.132;2023-05-20T00:01:52;98318.63;;;12.11;84.35
15694;BME280;7947;48.834;9.132;2023-05-20T00:04:54;98314.59;;;12.09;84.54
15694;BME280;7947;48.834;9.132;2023-05-20T00:07:57;98329.66;;;12.10;84.75
15694;BME280;7947;48.834;9.132;2023-05-20T00:11:01;98315.38;;;12.14;84.41
15694;BME280;7947;48.834;9.132;2023-05-20T00:14:04;98318.06;;;12.14;84.44
15694;BME280;7947;48.834;9.132;2023-05-20T00:17:08;98318.59;;;12.16;84.37
15694;BME280;7947;48.834;9.132;2023-05-20T00:20:11;98317.22;;;12.19;84.48
15694;BME280;7947;48.834;9.132;2023-05-20T00:23:14;98315.59;;;12.23;84.39
15694;BME280;7947;48.834;9.132;2023-05-20T00:26:17;98310.97;;;12.28;84.55
15694;BME280;7947;48.834;9.132;2023-05-20T00:29:21;98309.31;;;12.32;84.80
15694;BME280;7947;48.834;9.132;2023-05-20T00:32:25;98313.09;;;12.31;85.14
15694;BME280;7947;48.834;9.132;2023-05-20T00:35:28;98303.94;;;12.32;85.65
15694;BME280;7947;48.834;9.132;2023-05-20T00:38:32;98307.16;;;12.34;85.89
15694;BME280;7947;48.834;9.132;2023-05-20T00:41:35;98318.69;;;12.40;85.97
15694;BME280;7947;48.834;9.132;2023-05-20T00:44:38;98313.53;;;12.43;86.18
15694;BME280;7947;48.834;9.132;2023-05-20T00:47:42;98312.69;;;12.48;85.29
15694;BME280;7947;48.834;9.132;2023-05-20T00:50:46;98308.63;;;12.50;85.27
15694;BME280;7947;48.834;9.132;2023-05-20T00:53:49;98297.53;;;12.57;85.42
15694;BME280;7947;48.834;9.132;2023-05-20T00:56:52;98300.44;;;12.65;84.22
15694;BME280;7947;48.834;9.132;2023-05-20T00:59:55;98303.06;;;12.70;84.06
15694;BME280;7947;48.834;9.132;2023-05-20T01:03:00;98301.34;;;12.80;84.40
15694;BME280;7947;48.834;9.132;2023-05-20T01:06:03;98304.00;;;12.85;83.63
15694;BME280;7947;48.834;9.132;2023-05-20T01:09:06;98303.66;;;12.91;83.62
15694;BME280;7947;48.834;9.132;2023-05-20T01:12:18;98297.44;;;12.96;83.41
15694;BME280;7947;48.834;9.132;2023-05-20T01:15:26;98292.84;;;12.96;82.85
15694;BME280;7947;48.834;9.132;2023-05-20T01:18:31;98293.06;;;13.00;82.95
15694;BME280;7947;48.834;9.132;2023-05-20T01:21:35;98289.56;;;12.99;82.97
15694;BME280;7947;48.834;9.132;2023-05-20T01:24:41;98293.84;;;13.05;83.19
15694;BME280;7947;48.834;9.132;2023-05-20T01:27:44;98289.28;;;13.06;83.31
15694;BME280;7947;48.834;9.132;2023-05-20T01:30:50;98286.28;;;13.07;82.88
15694;BME280;7947;48.834;9.132;2023-05-20T01:33:55;98283.81;;;13.11;82.81
15694;BME280;7947;48.834;9.132;2023-05-20T01:36:59;98283.03;;;13.10;82.65
15694;BME280;7947;48.834;9.132;2023-05-20T01:40:04;98274.59;;;13.17;81.87
15694;BME280;7947;48.834;9.132;2023-05-20T01:43:08;98280.78;;;13.17;81.32
15694;BME280;7947;48.834;9.132;2023-05-20T01:46:11;98281.09;;;13.16;81.30
15694;BME280;7947;48.834;9.132;2023-05-20T01:49:14;98268.41;;;13.16;81.19
15694;BME280;7947;48.834;9.132;2023-05-20T01:52:18;98279.19;;;13.16;80.84
15694;BME280;7947;48.834;9.132;2023-05-20T01:55:22;98283.78;;;13.16;81.17
15694;BME280;7947;48.834;9.132;2023-05-20T01:58:25;98282.16;;;13.15;81.07
15694;BME280;7947;48.834;9.132;2023-05-20T02:01:28;98287.63;;;13.10;81.48
15694;BME280;7947;48.834;9.132;2023-05-20T02:04:31;98286.00;;;13.09;81.46
15694;BME280;7947;48.834;9.132;2023-05-20T02:07:33;98280.59;;;13.09;81.42
15694;BME280;7947;48.834;9.132;2023-05-20T02:10:37;98274.16;;;13.10;81.24
15694;BME280;7947;48.834;9.132;2023-05-20T02:13:40;98269.59;;;13.10;81.09
15694;BME280;7947;48.834;9.132;2023-05-20T02:16:43;98264.47;;;13.09;81.00
15694;BME280;7947;48.834;9.132;2023-05-20T02:19:47;98261.25;;;13.07;81.17
15694;BME280;7947;48.834;9.132;2023-05-20T02:22:50;98265.03;;;13.06;81.50
15694;BME280;7947;48.834;9.132;2023-05-20T02:25:54;98263.16;;;13.01;81.48
15694;BME280;7947;48.834;9.132;2023-05-20T02:28:57;98274.81;;;12.97;81.88
15694;BME280;7947;48.834;9.132;2023-05-20T02:32:00;98266.75;;;12.97;81.98
15694;BME280;7947;48.834;9.132;2023-05-20T02:35:03;98274.00;;;12.96;81.85
15694;BME280;7947;48.834;9.132;2023-05-20T02:38:06;98271.88;;;12.93;81.94
15694;BME280;7947;48.834;9.132;2023-05-20T02:41:10;98269.47;;;12.92;82.47
15694;BME280;7947;48.834;9.132;2023-05-20T02:44:13;98261.91;;;12.94;82.34
15694;BME280;7947;48.834;9.132;2023-05-20T02:47:17;98267.59;;;12.92;82.45
15694;BME280;7947;48.834;9.132;2023-05-20T02:50:19;98263.00;;;12.93;82.12
15694;BME280;7947;48.834;9.132;2023-05-20T02:53:22;98259.00;;;12.90;82.47
15694;BME280;7947;48.834;9.132;2023-05-20T02:56:26;98265.19;;;12.91;82.59
15694;BME280;7947;48.834;9.132;2023-05-20T02:59:29;98266.34;;;12.85;83.05
15694;BME280;7947;48.834;9.132;2023-05-20T03:02:32;98272.78;;;12.84;83.10
15694;BME280;7947;48.834;9.132;2023-05-20T03:05:35;98274.72;;;12.78;83.28
15694;BME280;7947;48.834;9.132;2023-05-20T03:08:38;98269.41;;;12.73;83.79
15694;BME280;7947;48.834;9.132;2023-05-20T03:11:44;98275.88;;;12.72;83.89
15694;BME280;7947;48.834;9.132;2023-05-20T03:14:48;98274.56;;;12.69;84.15
15694;BME280;7947;48.834;9.132;2023-05-20T03:17:55;98269.28;;;12.59;84.43
15694;BME280;7947;48.834;9.132;2023-05-20T03:20:58;98274.69;;;12.54;84.92
15694;BME280;7947;48.834;9.132;2023-05-20T03:24:01;98270.97;;;12.50;85.41
15694;BME280;7947;48.834;9.132;2023-05-20T03:27:05;98271.47;;;12.52;85.55
15694;BME280;7947;48.834;9.132;2023-05-20T03:30:08;98264.00;;;12.49;86.01
15694;BME280;7947;48.834;9.132;2023-05-20T03:33:11;98263.25;;;12.44;85.93
15694;BME280;7947;48.834;9.132;2023-05-20T03:36:15;98269.69;;;12.43;86.39
15694;BME280;7947;48.834;9.132;2023-05-20T03:39:17;98263.78;;;12.41;86.45
15694;BME280;7947;48.834;9.132;2023-05-20T03:42:21;98265.41;;;12.42;86.14
15694;BME280;7947;48.834;9.132;2023-05-20T03:45:24;98268.94;;;12.37;85.93
15694;BME280;7947;48.834;9.132;2023-05-20T03:48:27;98275.19;;;12.28;85.94
15694;BME280;7947;48.834;9.132;2023-05-20T03:51:30;98283.03;;;12.24;86.38
15694;BME280;7947;48.834;9.132;2023-05-20T03:54:32;98277.13;;;12.22;85.57
15694;BME280;7947;48.834;9.132;2023-05-20T03:57:37;98278.25;;;12.21;85.95
15694;BME280;7947;48.834;9.132;2023-05-20T04:00:40;98283.97;;;12.10;86.53
15694;BME280;7947;48.834;9.132;2023-05-20T04:03:43;98279.13;;;12.07;87.01
15694;BME280;7947;48.834;9.132;2023-05-20T04:06:46;98277.81;;;12.04;86.95
15694;BME280;7947;48.834;9.132;2023-05-20T04:09:48;98277.84;;;11.99;87.69
15694;BME280;7947;48.834;9.132;2023-05-20T04:12:53;98266.06;;;11.95;87.87
15694;BME280;7947;48.834;9.132;2023-05-20T04:15:56;98268.78;;;11.90;88.34
15694;BME280;7947;48.834;9.132;2023-05-20T04:18:59;98280.84;;;11.93;88.87
15694;BME280;7947;48.834;9.132;2023-05-20T04:22:03;98272.75;;;11.98;89.80
15694;BME280;7947;48.834;9.132;2023-05-20T04:25:06;98272.72;;;12.03;89.85
15694;BME280;7947;48.834;9.132;2023-05-20T04:28:11;98269.19;;;12.07;90.12
15694;BME280;7947;48.834;9.132;2023-05-20T04:31:16;98261.09;;;12.12;90.25
15694;BME280;7947;48.834;9.132;2023-05-20T04:34:21;98259.41;;;12.21;90.35
15694;BME280;7947;48.834;9.132;2023-05-20T04:37:27;98259.34;;;12.26;90.30
15694;BME280;7947;48.834;9.132;2023-05-20T04:40:32;98253.94;;;12.31;90.39
15694;BME280;7947;48.834;9.132;2023-05-20T04:43:36;98245.03;;;12.36;90.67
15694;BME280;7947;48.834;9.132;2023-05-20T04:46:40;98241.72;;;12.44;90.69
15694;BME280;7947;48.834;9.132;2023-05-20T04:49:45;98246.75;;;12.50;90.48
15694;BME280;7947;48.834;9.132;2023-05-20T04:52:48;98252.41;;;12.49;90.35
15694;BME280;7947;48.834;9.132;2023-05-20T04:55:53;98248.38;;;12.51;90.74
15694;BME280;7947;48.834;9.132;2023-05-20T04:58:59;98256.97;;;12.53;90.55
15694;BME280;7947;48.834;9.132;2023-05-20T05:02:01;98252.91;;;12.56;90.28
15694;BME280;7947;48.834;9.132;2023-05-20T05:05:05;98253.13;;;12.59;90.40
15694;BME280;7947;48.834;9.132;2023-05-20T05:08:09;98259.03;;;12.61;90.40
15694;BME280;7947;48.834;9.132;2023-05-20T05:11:12;98255.75;;;12.64;90.99
15694;BME280;7947;48.834;9.132;2023-05-20T05:14:17;98256.25;;;12.72;91.29
15694;BME280;7947;48.834;9.132;2023-05-20T05:17:19;98255.66;;;12.75;91.62
15694;BME280;7947;48.834;9.132;2023-05-20T05:20:22;98255.59;;;12.80;91.87
15694;BME280;7947;48.834;9.132;2023-05-20T05:23:25;98243.69;;;12.86;92.17
15694;BME280;7947;48.834;9.132;2023-05-20T05:26:27;98237.41;;;12.95;91.57
15694;BME280;7947;48.834;9.132;2023-05-20T05:29:32;98233.25;;;13.08;91.28
15694;BME280;7947;48.834;9.132;2023-05-20T05:32:35;98229.03;;;13.20;91.71
15694;BME280;7947;48.834;9.132;2023-05-20T05:35:38;98230.53;;;13.31;91.19
15694;BME280;7947;48.834;9.132;2023-05-20T05:38:42;98224.41;;;13.44;90.72
15694;BME280;7947;48.834;9.132;2023-05-20T05:41:45;98221.81;;;13.58;90.00
15694;BME280;7947;48.834;9.132;2023-05-20T05:44:50;98217.28;;;13.72;89.01
15694;BME280;7947;48.834;9.132;2023-05-20T05:47:53;98223.00;;;13.84;88.13
15694;BME280;7947;48.834;9.132;2023-05-20T05:50:56;98221.78;;;13.95;87.68
15694;BME280;7947;48.834;9.132;2023-05-20T05:53:58;98218.63;;;14.07;86.50
15694;BME280;7947;48.834;9.132;2023-05-20T05:57:01;98213.84;;;14.17;86.03
15694;BME280;7947;48.834;9.132;2023-05-20T06:00:09;98217.72;;;14.30;85.08
15694;BME280;7947;48.834;9.132;2023-05-20T06:03:12;98217.63;;;14.35;84.56
15694;BME280;7947;48.834;9.132;2023-05-20T06:06:15;98211.25;;;14.44;84.45
15694;BME280;7947;48.834;9.132;2023-05-20T06:09:18;98207.25;;;14.56;82.90
15694;BME280;7947;48.834;9.132;2023-05-20T06:12:21;98209.28;;;14.64;82.58
15694;BME280;7947;48.834;9.132;2023-05-20T06:15:25;98216.31;;;14.78;82.28
15694;BME280;7947;48.834;9.132;2023-05-20T06:18:28;98209.41;;;14.86;82.60
15694;BME280;7947;48.834;9.132;2023-05-20T06:21:31;98211.47;;;14.89;81.40
15694;BME280;7947;48.834;9.132;2023-05-20T06:24:34;98209.09;;;15.01;81.41
15694;BME280;7947;48.834;9.132;2023-05-20T06:27:37;98208.19;;;15.19;80.78
15694;BME280;7947;48.834;9.132;2023-05-20T06:30:41;98200.75;;;15.38;80.35
15694;BME280;7947;48.834;9.132;2023-05-20T06:33:44;98196.50;;;15.59;79.53
15694;BME280;7947;48.834;9.132;2023-05-20T06:36:46;98199.97;;;15.73;79.36
15694;BME280;7947;48.834;9.132;2023-05-20T06:39:50;98195.59;;;15.86;78.22
15694;BME280;7947;48.834;9.132;2023-05-20T06:42:54;98190.13;;;15.99;77.42
15694;BME280;7947;48.834;9.132;2023-05-20T06:45:58;98194.94;;;16.02;76.88
15694;BME280;7947;48.834;9.132;2023-05-20T06:49:01;98192.00;;;15.90;77.62
15694;BME280;7947;48.834;9.132;2023-05-20T06:52:05;98189.72;;;15.84;78.01
15694;BME280;7947;48.834;9.132;2023-05-20T06:55:08;98190.94;;;15.78;78.03
15694;BME280;7947;48.834;9.132;2023-05-20T06:58:12;98175.94;;;15.72;77.39
15694;BME280;7947;48.834;9.132;2023-05-20T07:01:17;98180.78;;;15.61;77.98
15694;BME280;7947;48.834;9.132;2023-05-20T07:04:20;98188.28;;;15.64;78.42
15694;BME280;7947;48.834;9.132;2023-05-20T07:07:23;98186.31;;;15.78;77.94
15694;BME280;7947;48.834;9.132;2023-05-20T07:10:25;98183.22;;;15.85;77.73
15694;BME280;7947;48.834;9.132;2023-05-20T07:13:29;98178.56;;;15.85;78.17
15694;BME280;7947;48.834;9.132;2023-05-20T07:16:34;98177.66;;;15.90;77.39
15694;BME280;7947;48.834;9.132;2023-05-20T07:19:37;98179.00;;;16.01;76.61
15694;BME280;7947;48.834;9.132;2023-05-20T07:22:40;98173.50;;;16.06;77.02
15694;BME280;7947;48.834;9.132;2023-05-20T07:25:43;98164.31;;;16.15;76.54
15694;BME280;7947;48.834;9.132;2023-05-20T07:28:46;98156.03;;;16.43;75.95
15694;BME280;7947;48.834;9.132;2023-05-20T07:31:50;98164.56;;;16.58;74.94
15694;BME280;7947;48.834;9.132;2023-05-20T07:34:53;98145.66;;;16.75;75.20
15694;BME280;7947;48.834;9.132;2023-05-20T07:37:56;98137.94;;;17.08;74.30
15694;BME280;7947;48.834;9.132;2023-05-20T07:40:59;98144.34;;;17.29;72.63
15694;BME280;7947;48.834;9.132;2023-05-20T07:44:04;98145.34;;;17.50;72.62
15694;BME280;7947;48.834;9.132;2023-05-20T07:47:08;98142.63;;;17.84;71.44
15694;BME280;7947;48.834;9.132;2023-05-20T07:50:14;98141.31;;;17.99;70.64
15694;BME280;7947;48.834;9.132;2023-05-20T07:53:17;98141.97;;;17.87;70.44
15694;BME280;7947;48.834;9.132;2023-05-20T07:56:20;98133.38;;;17.68;69.11
15694;BME280;7947;48.834;9.132;2023-05-20T07:59:23;98126.69;;;17.57;69.84
15694;BME280;7947;48.834;9.132;2023-05-20T08:02:27;98134.50;;;17.50;68.87
15694;BME280;7947;48.834;9.132;2023-05-20T08:05:30;98126.69;;;17.49;71.17
15694;BME280;7947;48.834;9.132;2023-05-20T08:08:33;98131.00;;;17.67;71.69
15694;BME280;7947;48.834;9.132;2023-05-20T08:11:36;98124.91;;;17.70;69.19
15694;BME280;7947;48.834;9.132;2023-05-20T08:14:39;98123.16;;;17.65;69.63
15694;BME280;7947;48.834;9.132;2023-05-20T08:17:45;98128.56;;;17.65;70.02
15694;BME280;7947;48.834;9.132;2023-05-20T08:20:48;98131.00;;;17.50;70.12
15694;BME280;7947;48.834;9.132;2023-05-20T08:23:51;98137.47;;;17.40;69.43
15694;BME280;7947;48.834;9.132;2023-05-20T08:26:54;98131.13;;;17.45;70.82
15694;BME280;7947;48.834;9.132;2023-05-20T08:29:57;98126.03;;;17.60;70.28
15694;BME280;7947;48.834;9.132;2023-05-20T08:33:02;98125.97;;;18.03;72.15
15694;BME280;7947;48.834;9.132;2023-05-20T08:36:05;98135.22;;;18.11;68.28
15694;BME280;7947;48.834;9.132;2023-05-20T08:39:09;98132.19;;;18.12;67.92
15694;BME280;7947;48.834;9.132;2023-05-20T08:42:12;98131.41;;;17.94;68.00
15694;BME280;7947;48.834;9.132;2023-05-20T08:45:17;98133.34;;;17.85;67.63
15694;BME280;7947;48.834;9.132;2023-05-20T08:48:23;98137.94;;;18.11;67.70
15694;BME280;7947;48.834;9.132;2023-05-20T08:51:28;98142.69;;;18.22;66.33
15694;BME280;7947;48.834;9.132;2023-05-20T08:54:41;98136.31;;;18.18;66.65
15694;BME280;7947;48.834;9.132;2023-05-20T08:57:45;98132.31;;;18.16;67.59
15694;BME280;7947;48.834;9.132;2023-05-20T09:00:48;98127.53;;;18.21;66.81
15694;BME280;7947;48.834;9.132;2023-05-20T09:03:53;98126.75;;;18.21;67.15
15694;BME280;7947;48.834;9.132;2023-05-20T09:06:55;98128.25;;;18.56;66.45
15694;BME280;7947;48.834;9.132;2023-05-20T09:09:58;98122.44;;;18.95;64.41
15694;BME280;7947;48.834;9.132;2023-05-20T09:13:02;98116.50;;;19.22;64.12
15694;BME280;7947;48.834;9.132;2023-05-20T09:16:06;98114.78;;;19.59;63.12
15694;BME280;7947;48.834;9.132;2023-05-20T09:19:10;98119.72;;;19.98;64.06
15694;BME280;7947;48.834;9.132;2023-05-20T09:22:13;98118.97;;;20.10;61.55
15694;BME280;7947;48.834;9.132;2023-05-20T09:25:18;98116.41;;;20.25;61.42
15694;BME280;7947;48.834;9.132;2023-05-20T09:28:24;98111.53;;;20.19;61.75
15694;BME280;7947;48.834;9.132;2023-05-20T09:31:27;98107.03;;;20.02;58.40
15694;BME280;7947;48.834;9.132;2023-05-20T09:34:31;98106.09;;;19.65;58.54
15694;BME280;7947;48.834;9.132;2023-05-20T09:37:35;98105.88;;;19.58;61.51
15694;BME280;7947;48.834;9.132;2023-05-20T09:40:41;98105.75;;;19.55;60.11
15694;BME280;7947;48.834;9.132;2023-05-20T09:43:46;98101.94;;;19.68;61.45
15694;BME280;7947;48.834;9.132;2023-05-20T09:46:49;98099.97;;;19.89;62.24
15694;BME280;7947;48.834;9.132;2023-05-20T09:49:55;98107.03;;;20.02;61.77
15694;BME280;7947;48.834;9.132;2023-05-20T09:53:03;98099.09;;;19.97;60.85
15694;BME280;7947;48.834;9.132;2023-05-20T09:56:07;98094.56;;;20.01;62.49
15694;BME280;7947;48.834;9.132;2023-05-20T09:59:10;98096.53;;;20.13;60.84
15694;BME280;7947;48.834;9.132;2023-05-20T10:02:13;98093.63;;;19.97;59.77
15694;BME280;7947;48.834;9.132;2023-05-20T10:05:20;98081.25;;;20.20;60.41
15694;BME280;7947;48.834;9.132;2023-05-20T10:08:57;98076.31;;;20.14;60.01
15694;BME280;7947;48.834;9.132;2023-05-20T10:12:10;98073.41;;;20.31;60.21
15694;BME280;7947;48.834;9.132;2023-05-20T10:15:17;98070.94;;;20.38;61.98
15694;BME280;7947;48.834;9.132;2023-05-20T10:18:32;98073.06;;;20.44;61.40
15694;BME280;7947;48.834;9.132;2023-05-20T10:21:39;98066.72;;;20.52;61.06
15694;BME280;7947;48.834;9.132;2023-05-20T10:24:43;98063.91;;;20.61;61.01
15694;BME280;7947;48.834;9.132;2023-05-20T10:27:46;98057.31;;;20.74;58.38
15694;BME280;7947;48.834;9.132;2023-05-20T10:30:49;98048.41;;;21.13;59.95
15694;BME280;7947;48.834;9.132;2023-05-20T10:33:52;98050.06;;;21.30;56.60
15694;BME280;7947;48.834;9.132;2023-05-20T10:36:58;98060.13;;;21.41;58.19
15694;BME280;7947;48.834;9.132;2023-05-20T10:40:05;98050.69;;;21.67;56.01
15694;BME280;7947;48.834;9.132;2023-05-20T10:43:09;98052.53;;;21.90;54.59
15694;BME280;7947;48.834;9.132;2023-05-20T10:46:16;98037.41;;;21.93;54.77
15694;BME280;7947;48.834;9.132;2023-05-20T10:49:39;98041.91;;;22.01;56.64
15694;BME280;7947;48.834;9.132;2023-05-20T10:52:44;98048.88;;;21.98;54.15
15694;BME280;7947;48.834;9.132;2023-05-20T10:55:48;98037.41;;;21.93;54.84
15694;BME280;7947;48.834;9.132;2023-05-20T10:58:53;98040.72;;;21.86;55.44
15694;BME280;7947;48.834;9.132;2023-05-20T11:01:56;98028.06;;;21.94;53.02
15694;BME280;7947;48.834;9.132;2023-05-20T11:05:00;98031.59;;;21.94;56.17
15694;BME280;7947;48.834;9.132;2023-05-20T11:08:07;98022.88;;;22.04;55.67
15694;BME280;7947;48.834;9.132;2023-05-20T11:11:28;98011.31;;;22.42;54.16
15694;BME280;7947;48.834;9.132;2023-05-20T11:14:31;98009.47;;;22.46;52.02
15694;BME280;7947;48.834;9.132;2023-05-20T11:17:34;97999.72;;;22.80;52.34
15694;BME280;7947;48.834;9.132;2023-05-20T11:20:37;98002.69;;;23.09;51.77
15694;BME280;7947;48.834;9.132;2023-05-20T11:23:42;98000.13;;;23.16;50.21
15694;BME280;7947;48.834;9.132;2023-05-20T11:26:45;97983.47;;;23.25;49.64
15694;BME280;7947;48.834;9.132;2023-05-20T11:29:49;97987.09;;;23.10;51.51
15694;BME280;7947;48.834;9.132;2023-05-20T11:32:56;97997.88;;;23.03;50.97
15694;BME280;7947;48.834;9.132;2023-05-20T11:36:01;97999.53;;;23.07;49.51
15694;BME280;7947;48.834;9.132;2023-05-20T11:39:15;97987.56;;;22.96;49.63
15694;BME280;7947;48.834;9.132;2023-05-20T11:42:18;97988.38;;;22.97;49.45
15694;BME280;7947;48.834;9.132;2023-05-20T11:45:21;97989.91;;;22.79;49.12
15694;BME280;7947;48.834;9.132;2023-05-20T11:48:24;97977.59;;;22.54;50.10
15694;BME280;7947;48.834;9.132;2023-05-20T11:51:28;97975.78;;;22.42;49.96
15694;BME280;7947;48.834;9.132;2023-05-20T11:54:35;97978.09;;;22.24;50.43
15694;BME280;7947;48.834;9.132;2023-05-20T11:57:38;97981.63;;;22.25;50.98
15694;BME280;7947;48.834;9.132;2023-05-20T12:00:41;97978.34;;;22.35;51.30
15694;BME280;7947;48.834;9.132;2023-05-20T12:03:50;97972.44;;;22.49;51.41
15694;BME280;7947;48.834;9.132;2023-05-20T12:06:53;97975.25;;;22.36;51.68
15694;BME280;7947;48.834;9.132;2023-05-20T12:09:57;97972.38;;;22.14;51.48
15694;BME280;7947;48.834;9.132;2023-05-20T12:13:00;97976.97;;;22.10;53.06
15694;BME280;7947;48.834;9.132;2023-05-20T12:16:04;97962.50;;;22.09;53.84
15694;BME280;7947;48.834;9.132;2023-05-20T12:19:07;97959.34;;;22.07;53.01
15694;BME280;7947;48.834;9.132;2023-05-20T12:22:10;97960.66;;;22.13;52.38
15694;BME280;7947;48.834;9.132;2023-05-20T12:25:16;97953.03;;;22.38;51.85
15694;BME280;7947;48.834;9.132;2023-05-20T12:28:20;97942.06;;;22.88;52.94
15694;BME280;7947;48.834;9.132;2023-05-20T12:31:23;97943.66;;;23.27;50.81
15694;BME280;7947;48.834;9.132;2023-05-20T12:34:27;97934.09;;;23.60;51.03
15694;BME280;7947;48.834;9.132;2023-05-20T12:37:31;97947.56;;;23.68;48.87
15694;BME280;7947;48.834;9.132;2023-05-20T12:40:37;97943.53;;;23.40;49.86
15694;BME280;7947;48.834;9.132;2023-05-20T12:43:40;97946.63;;;23.38;49.21
15694;BME280;7947;48.834;9.132;2023-05-20T12:46:42;97937.66;;;23.60;50.41
15694;BME280;7947;48.834;9.132;2023-05-20T12:49:45;97938.38;;;23.80;51.86
15694;BME280;7947;48.834;9.132;2023-05-20T12:52:48;97947.88;;;23.86;49.25
15694;BME280;7947;48.834;9.132;2023-05-20T12:55:52;97933.50;;;23.70;48.53
15694;BME280;7947;48.834;9.132;2023-05-20T12:58:55;97940.44;;;23.41;48.46
15694;BME280;7947;48.834;9.132;2023-05-20T13:01:58;97937.91;;;23.33;48.59
15694;BME280;7947;48.834;9.132;2023-05-20T13:05:01;97924.44;;;23.24;48.25
15694;BME280;7947;48.834;9.132;2023-05-20T13:08:04;97931.72;;;23.16;50.04
15694;BME280;7947;48.834;9.132;2023-05-20T13:11:11;97922.59;;;23.09;50.14
15694;BME280;7947;48.834;9.132;2023-05-20T13:14:14;97919.50;;;22.91;49.76
15694;BME280;7947;48.834;9.132;2023-05-20T13:17:18;97926.47;;;22.89;50.34
15694;BME280;7947;48.834;9.132;2023-05-20T13:20:21;97916.38;;;23.12;51.16
15694;BME280;7947;48.834;9.132;2023-05-20T13:23:24;97919.34;;;23.42;51.76
15694;BME280;7947;48.834;9.132;2023-05-20T13:26:28;97909.28;;;23.49;49.31
15694;BME280;7947;48.834;9.132;2023-05-20T13:29:31;97911.56;;;23.44;48.76
15694;BME280;7947;48.834;9.132;2023-05-20T13:32:34;97910.59;;;23.55;47.51
15694;BME280;7947;48.834;9.132;2023-05-20T13:35:37;97905.75;;;23.49;45.75
15694;BME280;7947;48.834;9.132;2023-05-20T13:38:40;97905.78;;;23.29;46.34
15694;BME280;7947;48.834;9.132;2023-05-20T13:41:44;97892.81;;;23.46;48.56
15694;BME280;7947;48.834;9.132;2023-05-20T13:44:47;97888.63;;;23.52;48.33
15694;BME280;7947;48.834;9.132;2023-05-20T13:47:50;97893.16;;;23.44;48.25
15694;BME280;7947;48.834;9.132;2023-05-20T13:50:53;97889.56;;;23.21;48.05
15694;BME280;7947;48.834;9.132;2023-05-20T13:53:56;97891.25;;;23.06;48.94
15694;BME280;7947;48.834;9.132;2023-05-20T13:57:00;97882.41;;;22.94;49.41
15694;BME280;7947;48.834;9.132;2023-05-20T14:00:06;97886.25;;;22.89;50.15
15694;BME280;7947;48.834;9.132;2023-05-20T14:03:09;97879.81;;;23.01;48.48
15694;BME280;7947;48.834;9.132;2023-05-20T14:06:13;97875.50;;;22.81;48.41
15694;BME280;7947;48.834;9.132;2023-05-20T14:09:19;97870.53;;;22.67;48.26
15694;BME280;7947;48.834;9.132;2023-05-20T14:12:23;97861.31;;;22.56;49.79
15694;BME280;7947;48.834;9.132;2023-05-20T14:15:26;97864.34;;;22.51;49.53
15694;BME280;7947;48.834;9.132;2023-05-20T14:18:31;97865.78;;;22.45;49.83
15694;BME280;7947;48.834;9.132;2023-05-20T14:21:34;97859.81;;;22.39;50.23
15694;BME280;7947;48.834;9.132;2023-05-20T14:24:36;97855.97;;;22.44;49.66
15694;BME280;7947;48.834;9.132;2023-05-20T14:27:41;97854.91;;;22.49;50.42
15694;BME280;7947;48.834;9.132;2023-05-20T14:30:44;97847.06;;;22.47;48.41
15694;BME280;7947;48.834;9.132;2023-05-20T14:33:46;97848.69;;;22.32;49.23
15694;BME280;7947;48.834;9.132;2023-05-20T14:36:49;97852.09;;;22.45;49.41
15694;BME280;7947;48.834;9.132;2023-05-20T14:39:52;97848.75;;;22.71;48.60
15694;BME280;7947;48.834;9.132;2023-05-20T14:42:57;97834.13;;;22.82;50.77
15694;BME280;7947;48.834;9.132;2023-05-20T14:46:00;97832.97;;;23.02;49.58
15694;BME280;7947;48.834;9.132;2023-05-20T14:49:03;97830.19;;;23.21;48.62
15694;BME280;7947;48.834;9.132;2023-05-20T14:52:06;97826.22;;;23.38;51.17
15694;BME280;7947;48.834;9.132;2023-05-20T14:55:09;97824.06;;;23.51;49.71
15694;BME280;7947;48.834;9.132;2023-05-20T14:58:14;97824.72;;;23.67;48.98
15694;BME280;7947;48.834;9.132;2023-05-20T15:01:16;97823.44;;;23.61;48.54
15694;BME280;7947;48.834;9.132;2023-05-20T15:04:19;97830.75;;;23.53;47.97
15694;BME280;7947;48.834;9.132;2023-05-20T15:07:22;97830.13;;;23.18;48.33
15694;BME280;7947;48.834;9.132;2023-05-20T15:10:25;97836.34;;;22.96;47.95
15694;BME280;7947;48.834;9.132;2023-05-20T15:13:29;97837.66;;;22.83;50.40
15694;BME280;7947;48.834;9.132;2023-05-20T15:16:32;97840.97;;;22.73;48.94
15694;BME280;7947;48.834;9.132;2023-05-20T15:19:35;97838.09;;;22.66;49.42
15694;BME280;7947;48.834;9.132;2023-05-20T15:22:42;97844.81;;;22.68;48.39
15694;BME280;7947;48.834;9.132;2023-05-20T15:25:46;97846.03;;;22.55;49.07
15694;BME280;7947;48.834;9.132;2023-05-20T15:28:52;97842.31;;;22.44;50.01
15694;BME280;7947;48.834;9.132;2023-05-20T15:31:55;97830.44;;;22.36;51.00
15694;BME280;7947;48.834;9.132;2023-05-20T15:34:57;97831.25;;;22.37;49.95
15694;BME280;7947;48.834;9.132;2023-05-20T15:38:03;97837.22;;;22.42;50.55
15694;BME280;7947;48.834;9.132;2023-05-20T15:41:06;97834.84;;;22.41;49.46
15694;BME280;7947;48.834;9.132;2023-05-20T15:44:14;97848.13;;;22.42;50.92
15694;BME280;7947;48.834;9.132;2023-05-20T15:47:17;97847.53;;;22.68;52.17
15694;BME280;7947;48.834;9.132;2023-05-20T15:50:20;97855.22;;;22.82;51.10
15694;BME280;7947;48.834;9.132;2023-05-20T15:53:23;97851.31;;;23.02;49.42
15694;BME280;7947;48.834;9.132;2023-05-20T15:56:27;97849.69;;;22.97;49.06
15694;BME280;7947;48.834;9.132;2023-05-20T15:59:32;97840.31;;;22.98;50.03
15694;BME280;7947;48.834;9.132;2023-05-20T16:02:35;97838.63;;;22.94;49.09
15694;BME280;7947;48.834;9.132;2023-05-20T16:05:38;97838.81;;;22.82;49.91
15694;BME280;7947;48.834;9.132;2023-05-20T16:08:41;97842.63;;;22.77;50.28
15694;BME280;7947;48.834;9.132;2023-05-20T16:11:45;97840.19;;;22.72;50.09
15694;BME280;7947;48.834;9.132;2023-05-20T16:14:49;97835.66;;;22.61;50.43
15694;BME280;7947;48.834;9.132;2023-05-20T16:17:52;97834.56;;;22.65;50.88
15694;BME280;7947;48.834;9.132;2023-05-20T16:20:55;97838.75;;;22.78;50.25
15694;BME280;7947;48.834;9.132;2023-05-20T16:23:58;97828.94;;;22.96;49.82
15694;BME280;7947;48.834;9.132;2023-05-20T16:27:01;97829.63;;;23.12;50.15